sensor_id;sensor_type;location;lat;lon;timestamp;P1;durP1;ratioP1;P2;durP2;ratioP2
4023;SDS011;2026;51.002;13.668;2023-02-26T00:03:43;3.03;;;2.40;;
4023;SDS011;2026;51.002;13.668;2023-02-26T00:08:46;3.87;;;2.70;;
4023;SDS011;2026;51.002;13.668;2023-02-26T00:13:51;3.20;;;2.40;;
4023;SDS011;2026;51.002;13.668;2023-02-26T00:18:54;2.93;;;1.97;;
4023;SDS011;2026;51.002;13.668;2023-02-26T00:23:57;3.03;;;2.40;;
4023;SDS011;2026;51.002;13.668;2023-02-26T00:29:04;2.37;;;2.10;;
4023;SDS011;2026;51.002;13.668;2023-02-26T00:34:09;3.80;;;2.33;;
4023;SDS011;2026;51.002;13.668;2023-02-26T00:39:19;6.83;;;2.60;;
4023;SDS011;2026;51.002;13.668;2023-02-26T00:44:35;10.30;;;2.10;;
4023;SDS011;2026;51.002;13.668;2023-02-26T00:54:52;4.00;;;2.50;;
4023;SDS011;2026;51.002;13.668;2023-02-26T00:59:56;4.23;;;2.67;;
4023;SDS011;2026;51.002;13.668;2023-02-26T01:04:59;2.10;;;1.90;;
4023;SDS011;2026;51.002;13.668;2023-02-26T01:10:03;4.30;;;2.50;;
4023;SDS011;2026;51.002;13.668;2023-02-26T01:15:09;2.20;;;1.70;;
4023;SDS011;2026;51.002;13.668;2023-02-26T01:20:13;2.23;;;2.00;;
4023;SDS011;2026;51.002;13.668;2023-02-26T01:25:21;4.43;;;2.33;;
4023;SDS011;2026;51.002;13.668;2023-02-26T01:30:29;1.90;;;1.80;;
4023;SDS011;2026;51.002;13.668;2023-02-26T01:35:36;2.17;;;2.00;;
4023;SDS011;2026;51.002;13.668;2023-02-26T01:46:24;3.67;;;2.43;;
4023;SDS011;2026;51.002;13.668;2023-02-26T01:51:40;4.17;;;2.30;;
4023;SDS011;2026;51.002;13.668;2023-02-26T01:56:47;5.90;;;3.27;;
4023;SDS011;2026;51.002;13.668;2023-02-26T02:01:55;3.90;;;2.80;;
4023;SDS011;2026;51.002;13.668;2023-02-26T02:06:59;3.93;;;2.70;;
4023;SDS011;2026;51.002;13.668;2023-02-26T02:12:07;5.77;;;3.10;;
4023;SDS011;2026;51.002;13.668;2023-02-26T02:17:21;5.83;;;3.50;;
4023;SDS011;2026;51.002;13.668;2023-02-26T02:22:44;4.70;;;3.50;;
4023;SDS011;2026;51.002;13.668;2023-02-26T02:28:01;3.70;;;3.20;;
4023;SDS011;2026;51.002;13.668;2023-02-26T02:33:12;4.90;;;3.50;;
4023;SDS011;2026;51.002;13.668;2023-02-26T02:38:18;5.00;;;3.37;;
4023;SDS011;2026;51.002;13.668;2023-02-26T02:43:29;5.20;;;4.00;;
4023;SDS011;2026;51.002;13.668;2023-02-26T02:48:37;6.67;;;3.80;;
4023;SDS011;2026;51.002;13.668;2023-02-26T02:53:46;4.33;;;3.50;;
4023;SDS011;2026;51.002;13.668;2023-02-26T02:58:54;6.77;;;3.80;;
4023;SDS011;2026;51.002;13.668;2023-02-26T03:04:05;4.60;;;3.87;;
4023;SDS011;2026;51.002;13.668;2023-02-26T03:09:10;5.10;;;3.70;;
4023;SDS011;2026;51.002;13.668;2023-02-26T03:14:14;4.97;;;3.50;;
4023;SDS011;2026;51.002;13.668;2023-02-26T03:19:21;6.57;;;3.90;;
4023;SDS011;2026;51.002;13.668;2023-02-26T03:24:34;7.43;;;3.73;;
4023;SDS011;2026;51.002;13.668;2023-02-26T03:29:42;5.57;;;4.30;;
4023;SDS011;2026;51.002;13.668;2023-02-26T03:34:55;9.67;;;5.80;;
4023;SDS011;2026;51.002;13.668;2023-02-26T03:40:05;6.07;;;4.70;;
4023;SDS011;2026;51.002;13.668;2023-02-26T03:45:13;7.37;;;4.50;;
4023;SDS011;2026;51.002;13.668;2023-02-26T03:50:23;8.10;;;5.20;;
4023;SDS011;2026;51.002;13.668;2023-02-26T03:55:51;6.93;;;4.30;;
4023;SDS011;2026;51.002;13.668;2023-02-26T04:01:36;7.30;;;4.37;;
4023;SDS011;2026;51.002;13.668;2023-02-26T04:06:46;5.70;;;4.47;;
4023;SDS011;2026;51.002;13.668;2023-02-26T04:11:50;5.77;;;4.40;;
4023;SDS011;2026;51.002;13.668;2023-02-26T04:16:56;12.33;;;8.57;;
4023;SDS011;2026;51.002;13.668;2023-02-26T04:22:00;8.93;;;5.00;;
4023;SDS011;2026;51.002;13.668;2023-02-26T04:27:03;9.83;;;5.60;;
4023;SDS011;2026;51.002;13.668;2023-02-26T04:32:07;6.47;;;4.47;;
4023;SDS011;2026;51.002;13.668;2023-02-26T04:37:11;6.37;;;4.53;;
4023;SDS011;2026;51.002;13.668;2023-02-26T04:42:16;6.57;;;4.80;;
4023;SDS011;2026;51.002;13.668;2023-02-26T04:47:19;7.90;;;4.17;;
4023;SDS011;2026;51.002;13.668;2023-02-26T04:52:23;8.57;;;4.80;;
4023;SDS011;2026;51.002;13.668;2023-02-26T04:57:27;4.23;;;3.70;;
4023;SDS011;2026;51.002;13.668;2023-02-26T05:02:30;5.57;;;4.20;;
4023;SDS011;2026;51.002;13.668;2023-02-26T05:07:34;5.00;;;3.80;;
4023;SDS011;2026;51.002;13.668;2023-02-26T05:12:37;5.37;;;3.93;;
4023;SDS011;2026;51.002;13.668;2023-02-26T05:17:40;7.10;;;3.73;;
4023;SDS011;2026;51.002;13.668;2023-02-26T05:22:44;4.10;;;2.83;;
4023;SDS011;2026;51.002;13.668;2023-02-26T05:27:47;3.90;;;3.10;;
4023;SDS011;2026;51.002;13.668;2023-02-26T05:32:50;11.20;;;3.27;;
4023;SDS011;2026;51.002;13.668;2023-02-26T05:37:56;5.80;;;3.77;;
4023;SDS011;2026;51.002;13.668;2023-02-26T05:42:59;5.17;;;3.40;;
4023;SDS011;2026;51.002;13.668;2023-02-26T05:48:02;3.50;;;3.07;;
4023;SDS011;2026;51.002;13.668;2023-02-26T05:53:06;5.40;;;3.20;;
4023;SDS011;2026;51.002;13.668;2023-02-26T05:58:09;5.70;;;3.60;;
4023;SDS011;2026;51.002;13.668;2023-02-26T06:03:12;6.93;;;3.83;;
4023;SDS011;2026;51.002;13.668;2023-02-26T06:08:17;5.53;;;3.57;;
4023;SDS011;2026;51.002;13.668;2023-02-26T06:13:20;8.57;;;3.83;;
4023;SDS011;2026;51.002;13.668;2023-02-26T06:18:23;4.40;;;3.53;;
4023;SDS011;2026;51.002;13.668;2023-02-26T06:23:27;9.43;;;4.43;;
4023;SDS011;2026;51.002;13.668;2023-02-26T06:28:30;7.97;;;3.80;;
4023;SDS011;2026;51.002;13.668;2023-02-26T06:33:33;10.23;;;4.20;;
4023;SDS011;2026;51.002;13.668;2023-02-26T06:38:37;8.50;;;5.00;;
4023;SDS011;2026;51.002;13.668;2023-02-26T06:43:40;6.07;;;4.07;;
4023;SDS011;2026;51.002;13.668;2023-02-26T06:48:43;6.27;;;3.80;;
4023;SDS011;2026;51.002;13.668;2023-02-26T06:53:47;5.87;;;3.80;;
4023;SDS011;2026;51.002;13.668;2023-02-26T06:58:50;7.27;;;4.03;;
4023;SDS011;2026;51.002;13.668;2023-02-26T07:03:53;6.53;;;3.87;;
4023;SDS011;2026;51.002;13.668;2023-02-26T07:08:58;5.37;;;3.80;;
4023;SDS011;2026;51.002;13.668;2023-02-26T07:14:01;5.80;;;3.93;;
4023;SDS011;2026;51.002;13.668;2023-02-26T07:19:04;7.33;;;3.73;;
4023;SDS011;2026;51.002;13.668;2023-02-26T07:24:08;6.20;;;3.70;;
4023;SDS011;2026;51.002;13.668;2023-02-26T07:29:11;4.17;;;3.20;;
4023;SDS011;2026;51.002;13.668;2023-02-26T07:34:14;7.77;;;2.87;;
4023;SDS011;2026;51.002;13.668;2023-02-26T07:39:18;11.00;;;5.53;;
4023;SDS011;2026;51.002;13.668;2023-02-26T07:44:21;5.50;;;3.60;;
4023;SDS011;2026;51.002;13.668;2023-02-26T07:49:24;4.63;;;3.20;;
4023;SDS011;2026;51.002;13.668;2023-02-26T07:54:29;4.10;;;3.43;;
4023;SDS011;2026;51.002;13.668;2023-02-26T07:59:32;4.63;;;3.40;;
4023;SDS011;2026;51.002;13.668;2023-02-26T08:04:35;4.70;;;3.47;;
4023;SDS011;2026;51.002;13.668;2023-02-26T08:09:39;6.23;;;3.47;;
4023;SDS011;2026;51.002;13.668;2023-02-26T08:14:42;3.43;;;2.90;;
4023;SDS011;2026;51.002;13.668;2023-02-26T08:19:45;4.33;;;2.90;;
4023;SDS011;2026;51.002;13.668;2023-02-26T08:24:49;7.80;;;3.47;;
4023;SDS011;2026;51.002;13.668;2023-02-26T08:29:52;7.70;;;2.97;;
4023;SDS011;2026;51.002;13.668;2023-02-26T08:34:55;4.63;;;3.07;;
4023;SDS011;2026;51.002;13.668;2023-02-26T08:40:00;4.57;;;2.67;;
4023;SDS011;2026;51.002;13.668;2023-02-26T08:45:03;7.10;;;3.00;;
4023;SDS011;2026;51.002;13.668;2023-02-26T08:50:07;3.37;;;2.47;;
4023;SDS011;2026;51.002;13.668;2023-02-26T08:55:12;6.70;;;2.50;;
4023;SDS011;2026;51.002;13.668;2023-02-26T09:00:16;6.40;;;2.47;;
4023;SDS011;2026;51.002;13.668;2023-02-26T09:05:20;3.50;;;2.90;;
4023;SDS011;2026;51.002;13.668;2023-02-26T09:10:24;5.53;;;2.57;;
4023;SDS011;2026;51.002;13.668;2023-02-26T09:15:28;4.97;;;3.40;;
4023;SDS011;2026;51.002;13.668;2023-02-26T09:20:32;5.77;;;2.53;;
4023;SDS011;2026;51.002;13.668;2023-02-26T09:25:37;5.23;;;2.80;;
4023;SDS011;2026;51.002;13.668;2023-02-26T09:30:40;3.93;;;2.80;;
4023;SDS011;2026;51.002;13.668;2023-02-26T09:35:43;3.13;;;2.70;;
4023;SDS011;2026;51.002;13.668;2023-02-26T09:40:51;3.67;;;2.17;;
4023;SDS011;2026;51.002;13.668;2023-02-26T09:45:58;2.87;;;2.40;;
4023;SDS011;2026;51.002;13.668;2023-02-26T09:51:07;2.70;;;2.40;;
4023;SDS011;2026;51.002;13.668;2023-02-26T09:56:22;4.30;;;2.40;;
4023;SDS011;2026;51.002;13.668;2023-02-26T10:01:30;2.53;;;1.90;;
4023;SDS011;2026;51.002;13.668;2023-02-26T10:06:37;3.40;;;1.87;;
4023;SDS011;2026;51.002;13.668;2023-02-26T10:11:48;2.93;;;2.23;;
4023;SDS011;2026;51.002;13.668;2023-02-26T10:16:55;5.90;;;2.53;;
4023;SDS011;2026;51.002;13.668;2023-02-26T10:22:05;3.47;;;1.87;;
4023;SDS011;2026;51.002;13.668;2023-02-26T10:27:21;11.50;;;2.47;;
4023;SDS011;2026;51.002;13.668;2023-02-26T10:32:34;4.00;;;2.47;;
4023;SDS011;2026;51.002;13.668;2023-02-26T10:37:42;4.60;;;2.40;;
4023;SDS011;2026;51.002;13.668;2023-02-26T10:42:51;2.40;;;2.10;;
4023;SDS011;2026;51.002;13.668;2023-02-26T10:48:01;2.50;;;2.03;;
4023;SDS011;2026;51.002;13.668;2023-02-26T10:53:12;4.00;;;2.50;;
4023;SDS011;2026;51.002;13.668;2023-02-26T10:58:17;4.33;;;2.40;;
4023;SDS011;2026;51.002;13.668;2023-02-26T11:03:28;8.77;;;2.27;;
4023;SDS011;2026;51.002;13.668;2023-02-26T11:08:36;6.53;;;2.50;;
4023;SDS011;2026;51.002;13.668;2023-02-26T11:13:46;9.33;;;2.60;;
4023;SDS011;2026;51.002;13.668;2023-02-26T11:18:52;4.50;;;1.83;;
4023;SDS011;2026;51.002;13.668;2023-02-26T11:23:57;6.33;;;2.07;;
4023;SDS011;2026;51.002;13.668;2023-02-26T11:29:05;3.70;;;1.70;;
4023;SDS011;2026;51.002;13.668;2023-02-26T11:34:08;1.90;;;1.60;;
4023;SDS011;2026;51.002;13.668;2023-02-26T11:39:14;5.87;;;1.77;;
4023;SDS011;2026;51.002;13.668;2023-02-26T11:44:23;3.57;;;1.70;;
4023;SDS011;2026;51.002;13.668;2023-02-26T11:49:33;6.80;;;2.30;;
4023;SDS011;2026;51.002;13.668;2023-02-26T11:54:45;2.77;;;1.80;;
4023;SDS011;2026;51.002;13.668;2023-02-26T11:59:50;2.80;;;2.00;;
4023;SDS011;2026;51.002;13.668;2023-02-26T12:04:56;3.03;;;1.67;;
4023;SDS011;2026;51.002;13.668;2023-02-26T12:10:02;1.97;;;1.77;;
4023;SDS011;2026;51.002;13.668;2023-02-26T12:15:25;9.27;;;1.93;;
4023;SDS011;2026;51.002;13.668;2023-02-26T12:20:34;2.50;;;1.70;;
4023;SDS011;2026;51.002;13.668;2023-02-26T12:25:48;2.20;;;1.70;;
4023;SDS011;2026;51.002;13.668;2023-02-26T12:31:11;3.43;;;1.80;;
4023;SDS011;2026;51.002;13.668;2023-02-26T12:36:38;4.00;;;2.10;;
4023;SDS011;2026;51.002;13.668;2023-02-26T12:41:55;3.10;;;1.60;;
4023;SDS011;2026;51.002;13.668;2023-02-26T12:47:17;2.20;;;1.40;;
4023;SDS011;2026;51.002;13.668;2023-02-26T12:52:36;6.43;;;1.80;;
4023;SDS011;2026;51.002;13.668;2023-02-26T12:58:05;3.07;;;1.90;;
4023;SDS011;2026;51.002;13.668;2023-02-26T13:03:37;2.03;;;1.40;;
4023;SDS011;2026;51.002;13.668;2023-02-26T13:08:50;1.80;;;1.13;;
4023;SDS011;2026;51.002;13.668;2023-02-26T13:14:11;3.10;;;1.70;;
4023;SDS011;2026;51.002;13.668;2023-02-26T13:19:34;3.70;;;1.50;;
4023;SDS011;2026;51.002;13.668;2023-02-26T13:24:45;8.77;;;2.00;;
4023;SDS011;2026;51.002;13.668;2023-02-26T13:35:24;4.77;;;1.90;;
4023;SDS011;2026;51.002;13.668;2023-02-26T13:45:59;8.40;;;2.33;;
4023;SDS011;2026;51.002;13.668;2023-02-26T13:51:22;7.00;;;2.43;;
4023;SDS011;2026;51.002;13.668;2023-02-26T13:56:52;4.83;;;1.80;;
4023;SDS011;2026;51.002;13.668;2023-02-26T14:01:57;6.50;;;1.93;;
4023;SDS011;2026;51.002;13.668;2023-02-26T14:07:09;5.37;;;3.00;;
4023;SDS011;2026;51.002;13.668;2023-02-26T14:17:47;6.00;;;2.70;;
4023;SDS011;2026;51.002;13.668;2023-02-26T14:22:56;2.93;;;2.03;;
4023;SDS011;2026;51.002;13.668;2023-02-26T14:28:18;4.57;;;1.63;;
4023;SDS011;2026;51.002;13.668;2023-02-26T14:33:36;4.93;;;2.13;;
4023;SDS011;2026;51.002;13.668;2023-02-26T14:38:45;3.63;;;1.90;;
4023;SDS011;2026;51.002;13.668;2023-02-26T14:43:52;6.03;;;3.27;;
4023;SDS011;2026;51.002;13.668;2023-02-26T14:49:01;4.90;;;2.70;;
4023;SDS011;2026;51.002;13.668;2023-02-26T14:54:10;7.03;;;2.37;;
4023;SDS011;2026;51.002;13.668;2023-02-26T14:59:37;3.60;;;2.03;;
4023;SDS011;2026;51.002;13.668;2023-02-26T15:05:07;3.80;;;2.10;;
4023;SDS011;2026;51.002;13.668;2023-02-26T15:10:27;2.10;;;1.47;;
4023;SDS011;2026;51.002;13.668;2023-02-26T15:15:43;4.00;;;1.93;;
4023;SDS011;2026;51.002;13.668;2023-02-26T15:20:56;3.23;;;2.17;;
4023;SDS011;2026;51.002;13.668;2023-02-26T15:26:15;3.73;;;2.00;;
4023;SDS011;2026;51.002;13.668;2023-02-26T15:31:26;4.70;;;2.73;;
4023;SDS011;2026;51.002;13.668;2023-02-26T15:36:32;4.30;;;1.67;;
4023;SDS011;2026;51.002;13.668;2023-02-26T15:41:36;1.97;;;1.80;;
4023;SDS011;2026;51.002;13.668;2023-02-26T15:46:41;5.10;;;1.90;;
4023;SDS011;2026;51.002;13.668;2023-02-26T15:51:47;5.40;;;2.20;;
4023;SDS011;2026;51.002;13.668;2023-02-26T15:56:52;5.37;;;2.80;;
4023;SDS011;2026;51.002;13.668;2023-02-26T16:01:56;2.50;;;2.10;;
4023;SDS011;2026;51.002;13.668;2023-02-26T16:06:59;2.60;;;1.80;;
4023;SDS011;2026;51.002;13.668;2023-02-26T16:12:05;4.97;;;3.30;;
4023;SDS011;2026;51.002;13.668;2023-02-26T16:17:11;4.70;;;2.20;;
4023;SDS011;2026;51.002;13.668;2023-02-26T16:22:19;4.00;;;2.60;;
4023;SDS011;2026;51.002;13.668;2023-02-26T16:27:26;8.00;;;5.20;;
4023;SDS011;2026;51.002;13.668;2023-02-26T16:32:30;5.70;;;3.40;;
4023;SDS011;2026;51.002;13.668;2023-02-26T16:37:36;7.07;;;4.10;;
4023;SDS011;2026;51.002;13.668;2023-02-26T16:42:50;5.20;;;2.97;;
4023;SDS011;2026;51.002;13.668;2023-02-26T16:47:55;4.70;;;2.43;;
4023;SDS011;2026;51.002;13.668;2023-02-26T16:53:01;9.53;;;6.33;;
4023;SDS011;2026;51.002;13.668;2023-02-26T16:58:11;8.43;;;3.90;;
4023;SDS011;2026;51.002;13.668;2023-02-26T17:03:17;6.77;;;4.27;;
4023;SDS011;2026;51.002;13.668;2023-02-26T17:08:25;3.90;;;3.50;;
4023;SDS011;2026;51.002;13.668;2023-02-26T17:13:31;10.43;;;6.20;;
4023;SDS011;2026;51.002;13.668;2023-02-26T17:18:36;12.20;;;7.40;;
4023;SDS011;2026;51.002;13.668;2023-02-26T17:23:38;16.57;;;7.97;;
4023;SDS011;2026;51.002;13.668;2023-02-26T17:28:43;8.27;;;5.73;;
4023;SDS011;2026;51.002;13.668;2023-02-26T17:33:46;15.30;;;4.53;;
4023;SDS011;2026;51.002;13.668;2023-02-26T17:38:50;7.03;;;5.80;;
4023;SDS011;2026;51.002;13.668;2023-02-26T17:43:55;11.57;;;7.40;;
4023;SDS011;2026;51.002;13.668;2023-02-26T17:48:58;6.20;;;4.43;;
4023;SDS011;2026;51.002;13.668;2023-02-26T17:54:01;7.33;;;3.50;;
4023;SDS011;2026;51.002;13.668;2023-02-26T17:59:06;4.77;;;2.53;;
4023;SDS011;2026;51.002;13.668;2023-02-26T18:04:12;5.43;;;2.27;;
4023;SDS011;2026;51.002;13.668;2023-02-26T18:09:17;5.77;;;2.70;;
4023;SDS011;2026;51.002;13.668;2023-02-26T18:14:21;5.37;;;2.90;;
4023;SDS011;2026;51.002;13.668;2023-02-26T18:19:24;6.80;;;3.57;;
4023;SDS011;2026;51.002;13.668;2023-02-26T18:24:27;11.40;;;6.20;;
4023;SDS011;2026;51.002;13.668;2023-02-26T18:29:34;10.93;;;4.30;;
4023;SDS011;2026;51.002;13.668;2023-02-26T18:34:37;7.10;;;4.70;;
4023;SDS011;2026;51.002;13.668;2023-02-26T18:39:40;10.70;;;4.20;;
4023;SDS011;2026;51.002;13.668;2023-02-26T18:44:45;6.63;;;4.33;;
4023;SDS011;2026;51.002;13.668;2023-02-26T18:49:49;8.83;;;4.90;;
4023;SDS011;2026;51.002;13.668;2023-02-26T18:54:53;9.40;;;5.93;;
4023;SDS011;2026;51.002;13.668;2023-02-26T18:59:57;11.87;;;7.33;;
4023;SDS011;2026;51.002;13.668;2023-02-26T19:05:00;28.27;;;17.00;;
4023;SDS011;2026;51.002;13.668;2023-02-26T19:10:04;7.43;;;5.47;;
4023;SDS011;2026;51.002;13.668;2023-02-26T19:15:11;9.70;;;8.70;;
4023;SDS011;2026;51.002;13.668;2023-02-26T19:20:14;8.23;;;4.97;;
4023;SDS011;2026;51.002;13.668;2023-02-26T19:25:18;6.63;;;3.83;;
4023;SDS011;2026;51.002;13.668;2023-02-26T19:30:26;6.67;;;4.37;;
4023;SDS011;2026;51.002;13.668;2023-02-26T19:35:29;9.57;;;4.80;;
4023;SDS011;2026;51.002;13.668;2023-02-26T19:40:32;9.20;;;4.47;;
4023;SDS011;2026;51.002;13.668;2023-02-26T19:45:36;12.10;;;4.90;;
4023;SDS011;2026;51.002;13.668;2023-02-26T19:50:39;6.43;;;3.67;;
4023;SDS011;2026;51.002;13.668;2023-02-26T19:55:42;7.33;;;5.13;;
4023;SDS011;2026;51.002;13.668;2023-02-26T20:00:46;6.27;;;4.97;;
4023;SDS011;2026;51.002;13.668;2023-02-26T20:05:49;6.43;;;3.73;;
4023;SDS011;2026;51.002;13.668;2023-02-26T20:10:53;5.33;;;3.37;;
4023;SDS011;2026;51.002;13.668;2023-02-26T20:15:59;5.97;;;3.63;;
4023;SDS011;2026;51.002;13.668;2023-02-26T20:21:03;7.50;;;4.30;;
4023;SDS011;2026;51.002;13.668;2023-02-26T20:26:09;7.00;;;4.23;;
4023;SDS011;2026;51.002;13.668;2023-02-26T20:31:15;12.60;;;7.07;;
4023;SDS011;2026;51.002;13.668;2023-02-26T20:36:18;8.67;;;4.30;;
4023;SDS011;2026;51.002;13.668;2023-02-26T20:41:21;5.30;;;3.07;;
4023;SDS011;2026;51.002;13.668;2023-02-26T20:46:26;6.40;;;3.97;;
4023;SDS011;2026;51.002;13.668;2023-02-26T20:51:31;5.57;;;3.10;;
4023;SDS011;2026;51.002;13.668;2023-02-26T20:56:34;5.63;;;3.17;;
4023;SDS011;2026;51.002;13.668;2023-02-26T21:01:38;4.60;;;2.93;;
4023;SDS011;2026;51.002;13.668;2023-02-26T21:06:41;8.43;;;2.93;;
4023;SDS011;2026;51.002;13.668;2023-02-26T21:11:44;4.27;;;2.57;;
4023;SDS011;2026;51.002;13.668;2023-02-26T21:16:49;5.13;;;2.70;;
4023;SDS011;2026;51.002;13.668;2023-02-26T21:21:52;5.70;;;2.70;;
4023;SDS011;2026;51.002;13.668;2023-02-26T21:26:55;4.83;;;2.57;;
4023;SDS011;2026;51.002;13.668;2023-02-26T21:31:59;3.93;;;2.50;;
4023;SDS011;2026;51.002;13.668;2023-02-26T21:37:04;4.30;;;2.40;;
4023;SDS011;2026;51.002;13.668;2023-02-26T21:42:10;4.57;;;2.60;;
4023;SDS011;2026;51.002;13.668;2023-02-26T21:47:15;5.37;;;3.23;;
4023;SDS011;2026;51.002;13.668;2023-02-26T21:52:18;4.97;;;2.67;;
4023;SDS011;2026;51.002;13.668;2023-02-26T21:57:21;3.97;;;3.00;;
4023;SDS011;2026;51.002;13.668;2023-02-26T22:02:26;10.10;;;5.00;;
4023;SDS011;2026;51.002;13.668;2023-02-26T22:07:31;3.83;;;2.20;;
4023;SDS011;2026;51.002;13.668;2023-02-26T22:12:34;3.30;;;2.70;;
4023;SDS011;2026;51.002;13.668;2023-02-26T22:17:38;3.83;;;2.20;;
4023;SDS011;2026;51.002;13.668;2023-02-26T22:22:41;4.70;;;2.80;;
4023;SDS011;2026;51.002;13.668;2023-02-26T22:27:44;4.40;;;2.30;;
4023;SDS011;2026;51.002;13.668;2023-02-26T22:32:48;3.13;;;2.03;;
4023;SDS011;2026;51.002;13.668;2023-02-26T22:37:51;4.00;;;2.23;;
4023;SDS011;2026;51.002;13.668;2023-02-26T22:42:54;3.57;;;2.47;;
4023;SDS011;2026;51.002;13.668;2023-02-26T22:47:59;4.47;;;2.80;;
4023;SDS011;2026;51.002;13.668;2023-02-26T22:53:02;3.07;;;2.10;;
4023;SDS011;2026;51.002;13.668;2023-02-26T22:58:07;4.00;;;2.23;;
4023;SDS011;2026;51.002;13.668;2023-02-26T23:03:11;4.97;;;2.30;;
4023;SDS011;2026;51.002;13.668;2023-02-26T23:08:15;5.77;;;2.80;;
4023;SDS011;2026;51.002;13.668;2023-02-26T23:13:18;4.83;;;3.13;;
4023;SDS011;2026;51.002;13.668;2023-02-26T23:18:22;4.73;;;3.20;;
4023;SDS011;2026;51.002;13.668;2023-02-26T23:23:26;5.27;;;3.20;;
4023;SDS011;2026;51.002;13.668;2023-02-26T23:28:29;3.90;;;2.63;;
4023;SDS011;2026;51.002;13.668;2023-02-26T23:33:34;12.60;;;5.67;;
4023;SDS011;2026;51.002;13.668;2023-02-26T23:38:38;6.53;;;4.27;;
4023;SDS011;2026;51.002;13.668;2023-02-26T23:43:41;5.67;;;3.90;;
4023;SDS011;2026;51.002;13.668;2023-02-26T23:48:45;17.20;;;10.40;;
4023;SDS011;2026;51.002;13.668;2023-02-26T23:53:48;5.83;;;4.07;;
4023;SDS011;2026;51.002;13.668;2023-02-26T23:58:51;3.83;;;2.77;;
